Airport View

Enter AWOS ICAO identifier for current METAR.

ex. KFNL

KMQS 181115Z AUTO 10004KT 10SM CLR M06/M15 A3057 RMK AO2

18 Jan 2020 11:24

Frequency: 126.25

Phone: 610-384-6132

Other Area AWOS: KPTW - KLNS - KILG - KRDG

TAF AMD KLNS 180813Z 1808/1906 00000KT P6SM BKN170 OVC250 FM181500 15008G15KT 1SM -SN OVC012 FM182100 16009G22KT 1SM -SNPL BR OVC003 FM190000 17011KT 1SM -SN BR OVC003 WS020/21046KT